createdAt,value
2024-02-13T04:41:07.239Z,5.87
2024-02-13T04:44:10.630Z,5.87
2024-02-13T04:47:13.275Z,5.39
2024-02-13T04:50:18.756Z,5.48
2024-02-13T04:53:23.389Z,5.51
2024-02-13T04:56:27.553Z,5.63
2024-02-13T04:59:38.825Z,5.66
2024-02-13T05:02:47.619Z,5.72
2024-02-13T05:06:09.181Z,5.74
2024-02-13T05:09:12.910Z,5.73
2024-02-13T05:12:16.127Z,5.76
2024-02-13T05:15:22.001Z,5.76
2024-02-13T05:18:24.798Z,5.83
2024-02-13T05:21:28.106Z,5.77
2024-02-13T05:24:30.721Z,5.77
2024-02-13T05:27:33.477Z,5.80
2024-02-13T05:30:37.505Z,5.74
2024-02-13T05:33:40.791Z,5.69
2024-02-13T05:36:44.773Z,5.65
2024-02-13T05:39:51.308Z,5.63
2024-02-13T05:42:55.953Z,5.56
2024-02-13T05:45:58.895Z,5.51
2024-02-13T05:49:01.967Z,5.57
2024-02-13T05:52:06.195Z,5.56
2024-02-13T05:55:09.617Z,5.59
2024-02-13T05:58:12.697Z,5.57
2024-02-13T06:01:15.361Z,5.57
2024-02-13T06:04:18.196Z,5.58
2024-02-13T06:07:21.078Z,5.59
2024-02-13T06:10:25.916Z,5.49
2024-02-13T06:13:28.933Z,5.48
2024-02-13T06:16:32.301Z,5.51
2024-02-13T06:19:34.992Z,5.56
2024-02-13T06:22:38.807Z,5.68
2024-02-13T06:25:41.549Z,5.65
2024-02-13T06:28:44.409Z,5.72
2024-02-13T06:31:47.047Z,5.78
2024-02-13T06:34:50.144Z,5.82
2024-02-13T06:37:54.321Z,5.83
2024-02-13T06:40:59.061Z,5.79
2024-02-13T06:44:04.305Z,5.94
2024-02-13T06:47:08.135Z,5.97
2024-02-13T06:50:14.319Z,5.96
2024-02-13T06:53:17.644Z,5.96
2024-02-13T06:56:20.603Z,6.05
2024-02-13T06:59:23.716Z,6.07
2024-02-13T07:02:26.642Z,6.23
2024-02-13T07:05:31.143Z,6.42
2024-02-13T07:08:34.608Z,6.61
2024-02-13T07:11:37.721Z,6.69
2024-02-13T07:14:40.447Z,6.77
2024-02-13T07:17:52.563Z,6.90
2024-02-13T07:21:07.459Z,7.06
2024-02-13T07:24:11.848Z,7.05
2024-02-13T07:27:14.480Z,7.21
2024-02-13T07:30:17.644Z,7.35
2024-02-13T07:33:20.488Z,7.44
2024-02-13T07:36:23.599Z,7.64
2024-02-13T07:39:27.982Z,8.02
2024-02-13T07:42:30.939Z,8.23
2024-02-13T07:45:33.687Z,8.49
2024-02-13T07:48:36.932Z,8.40
2024-02-13T07:51:39.517Z,8.71
2024-02-13T07:54:43.107Z,8.86
2024-02-13T07:57:51.106Z,9.01
2024-02-13T08:00:54.047Z,9.16
2024-02-13T08:04:01.442Z,9.26
2024-02-13T08:07:04.867Z,9.29
2024-02-13T08:10:11.291Z,9.12
2024-02-13T08:13:13.903Z,9.17
2024-02-13T08:16:16.811Z,9.32
2024-02-13T08:19:19.683Z,9.71
2024-02-13T08:22:22.686Z,10.47
2024-02-13T08:25:26.552Z,10.49
2024-02-13T08:28:31.515Z,10.09
2024-02-13T08:31:35.167Z,9.85
2024-02-13T08:34:39.694Z,9.53
2024-02-13T08:37:42.618Z,9.62
2024-02-13T08:40:45.577Z,9.77
2024-02-13T08:43:48.832Z,10.59
2024-02-13T08:46:51.849Z,10.78
2024-02-13T08:49:55.204Z,10.65
2024-02-13T08:52:58.894Z,10.34
2024-02-13T08:56:01.639Z,10.29
2024-02-13T08:59:05.773Z,10.39
2024-02-13T09:02:10.129Z,10.70
2024-02-13T09:05:13.932Z,10.81
2024-02-13T09:08:16.833Z,11.10
2024-02-13T09:11:23.115Z,11.22
2024-02-13T09:14:25.737Z,11.15
2024-02-13T09:17:28.657Z,11.07
2024-02-13T09:20:31.739Z,11.08
2024-02-13T09:23:35.489Z,11.12
2024-02-13T09:26:38.383Z,11.21
2024-02-13T09:29:42.247Z,11.03
2024-02-13T09:32:47.970Z,11.08
2024-02-13T09:35:51.725Z,11.12
2024-02-13T09:38:55.078Z,11.16
2024-02-13T09:41:59.387Z,11.27
2024-02-13T09:45:04.159Z,11.14
2024-02-13T09:48:22.645Z,11.01
2024-02-13T09:51:26.426Z,11.07
2024-02-13T09:54:32.236Z,11.21
2024-02-13T09:57:35.067Z,11.29
2024-02-13T10:00:38.052Z,11.27
2024-02-13T10:03:41.087Z,11.36
2024-02-13T10:06:44.035Z,11.25
2024-02-13T10:09:50.511Z,11.29
2024-02-13T10:12:55.313Z,11.22
2024-02-13T10:15:58.267Z,11.30
2024-02-13T10:19:04.651Z,11.42
2024-02-13T10:22:08.706Z,11.51
2024-02-13T10:25:12.750Z,11.56
2024-02-13T10:28:18.151Z,11.42
2024-02-13T10:31:27.485Z,11.56
2024-02-13T10:34:30.506Z,11.69
2024-02-13T10:37:33.416Z,11.96
2024-02-13T10:40:40.584Z,12.03
2024-02-13T10:43:43.812Z,12.16
2024-02-13T10:46:50.346Z,12.14
2024-02-13T10:50:00.273Z,12.13
2024-02-13T10:53:04.852Z,12.35
2024-02-13T10:56:09.622Z,12.41
2024-02-13T10:59:12.974Z,12.48
2024-02-13T11:02:16.578Z,12.72
2024-02-13T11:05:20.507Z,12.71
2024-02-13T11:08:24.286Z,12.77
2024-02-13T11:11:29.265Z,12.70
2024-02-13T11:14:32.129Z,12.68
2024-02-13T11:17:43.576Z,12.69
2024-02-13T11:20:51.614Z,12.81
2024-02-13T11:24:01.642Z,12.86
2024-02-13T11:27:17.003Z,13.00
2024-02-13T11:30:29.501Z,13.19
2024-02-13T11:33:32.293Z,13.32
2024-02-13T11:36:36.498Z,13.18
2024-02-13T11:39:42.449Z,13.29
2024-02-13T11:42:45.872Z,13.80
2024-02-13T11:45:48.952Z,14.32
2024-02-13T11:48:54.311Z,14.50
2024-02-13T11:51:57.601Z,14.19
2024-02-13T11:55:02.724Z,14.20
2024-02-13T11:58:07.442Z,14.39
2024-02-13T12:01:13.584Z,14.42
2024-02-13T12:04:21.019Z,14.52
2024-02-13T12:07:24.061Z,14.20
2024-02-13T12:10:27.306Z,13.94
2024-02-13T12:13:33.921Z,13.85
2024-02-13T12:16:38.325Z,13.78
2024-02-13T12:19:41.886Z,13.76
2024-02-13T12:22:47.717Z,13.59
2024-02-13T12:26:01.868Z,13.91
2024-02-13T12:29:16.144Z,13.51
2024-02-13T12:32:19.470Z,13.25
2024-02-13T12:35:33.437Z,13.24
2024-02-13T12:38:39.602Z,13.61
2024-02-13T12:41:42.662Z,13.77
2024-02-13T12:44:45.515Z,13.79
2024-02-13T12:47:49.226Z,14.24
2024-02-13T12:50:52.904Z,14.15
2024-02-13T12:53:55.938Z,14.42
2024-02-13T12:56:58.567Z,14.36
2024-02-13T13:00:01.499Z,14.09
2024-02-13T13:03:05.799Z,14.51
2024-02-13T13:06:12.681Z,13.84
2024-02-13T13:09:27.504Z,13.26
2024-02-13T13:12:31.843Z,12.85
2024-02-13T13:15:35.414Z,12.76
2024-02-13T13:18:40.035Z,12.78
2024-02-13T13:21:43.457Z,12.90
2024-02-13T13:24:46.558Z,12.49
2024-02-13T13:27:50.294Z,12.35
2024-02-13T13:30:58.802Z,12.47
2024-02-13T13:34:07.194Z,13.17
2024-02-13T13:37:11.758Z,13.91
2024-02-13T13:40:18.071Z,14.57
2024-02-13T13:43:21.080Z,15.29
2024-02-13T13:46:25.499Z,15.87
2024-02-13T13:49:28.535Z,16.64
2024-02-13T13:52:31.283Z,19.24
2024-02-13T13:55:34.274Z,21.81
2024-02-13T13:58:37.169Z,23.92
2024-02-13T14:01:40.039Z,25.75
2024-02-13T14:04:42.801Z,26.82
2024-02-13T14:07:45.256Z,27.16
2024-02-13T14:10:49.869Z,27.96
2024-02-13T14:13:53.675Z,27.46
2024-02-13T14:16:56.746Z,28.75
2024-02-13T14:19:59.421Z,28.43
2024-02-13T14:23:02.493Z,28.63
2024-02-13T14:26:05.419Z,27.44
2024-02-13T14:29:12.281Z,27.81
2024-02-13T14:32:15.899Z,28.79
2024-02-13T14:35:19.332Z,28.50
2024-02-13T14:38:22.523Z,24.52
2024-02-13T14:41:26.206Z,23.38
2024-02-13T14:44:28.986Z,23.07
2024-02-13T14:47:32.890Z,24.25
2024-02-13T14:50:36.159Z,24.26
2024-02-13T14:53:39.341Z,23.40
2024-02-13T14:56:43.033Z,21.66
2024-02-13T14:59:46.505Z,20.65
2024-02-13T15:02:49.366Z,19.66
2024-02-13T15:05:53.560Z,17.94
2024-02-13T15:08:56.845Z,16.17
2024-02-13T15:12:00.769Z,14.60
2024-02-13T15:15:05.888Z,14.11
2024-02-13T15:18:08.977Z,13.67
2024-02-13T15:21:13.637Z,13.20
2024-02-13T15:24:19.759Z,12.63
2024-02-13T15:27:22.630Z,12.25
2024-02-13T15:30:26.882Z,12.01
2024-02-13T15:33:30.283Z,11.80
2024-02-13T15:36:34.089Z,11.50
2024-02-13T15:39:55.815Z,10.90
2024-02-13T15:43:17.569Z,10.53
2024-02-13T15:46:55.568Z,10.22
2024-02-13T15:49:59.301Z,9.83
2024-02-13T15:53:20.736Z,9.39
2024-02-13T15:56:23.738Z,9.26
2024-02-13T15:59:27.487Z,9.17
2024-02-13T16:02:30.532Z,9.14
2024-02-13T16:05:35.465Z,8.92
2024-02-13T16:08:38.201Z,8.72
2024-02-13T16:11:41.242Z,8.57
2024-02-13T16:14:43.871Z,8.47
2024-02-13T16:17:46.931Z,8.29
2024-02-13T16:23:11.783Z,8.12
2024-02-13T16:31:58.590Z,8.12
2024-02-13T16:35:02.552Z,8.12
2024-02-13T16:38:39.598Z,8.12
